sensor_id;sensor_type;location;lat;lon;timestamp;P1;durP1;ratioP1;P2;durP2;ratioP2
30249;SDS011;17064;47.974;13.826;2024-02-04T00:03:00;9.75;;;4.47;;
30249;SDS011;17064;47.974;13.826;2024-02-04T00:08:19;8.23;;;4.20;;
30249;SDS011;17064;47.974;13.826;2024-02-04T00:13:38;9.10;;;4.78;;
30249;SDS011;17064;47.974;13.826;2024-02-04T00:18:57;7.55;;;4.55;;
30249;SDS011;17064;47.974;13.826;2024-02-04T00:24:17;7.45;;;4.50;;
30249;SDS011;17064;47.974;13.826;2024-02-04T00:29:37;9.00;;;5.20;;
30249;SDS011;17064;47.974;13.826;2024-02-04T00:34:57;8.57;;;4.35;;
30249;SDS011;17064;47.974;13.826;2024-02-04T00:40:17;7.47;;;4.35;;
30249;SDS011;17064;47.974;13.826;2024-02-04T00:45:35;7.95;;;4.47;;
30249;SDS011;17064;47.974;13.826;2024-02-04T00:50:55;8.13;;;4.85;;
30249;SDS011;17064;47.974;13.826;2024-02-04T00:56:14;9.65;;;4.43;;
30249;SDS011;17064;47.974;13.826;2024-02-04T01:01:34;7.03;;;3.83;;
30249;SDS011;17064;47.974;13.826;2024-02-04T01:06:53;6.25;;;4.00;;
30249;SDS011;17064;47.974;13.826;2024-02-04T01:12:12;7.30;;;3.40;;
30249;SDS011;17064;47.974;13.826;2024-02-04T01:17:32;7.00;;;3.35;;
30249;SDS011;17064;47.974;13.826;2024-02-04T01:22:52;7.65;;;3.53;;
30249;SDS011;17064;47.974;13.826;2024-02-04T01:28:12;4.47;;;3.10;;
30249;SDS011;17064;47.974;13.826;2024-02-04T01:33:31;7.88;;;3.55;;
30249;SDS011;17064;47.974;13.826;2024-02-04T01:38:51;7.13;;;3.38;;
30249;SDS011;17064;47.974;13.826;2024-02-04T01:44:10;6.45;;;3.60;;
30249;SDS011;17064;47.974;13.826;2024-02-04T01:49:29;5.13;;;3.45;;
30249;SDS011;17064;47.974;13.826;2024-02-04T01:54:49;6.90;;;3.97;;
30249;SDS011;17064;47.974;13.826;2024-02-04T02:00:10;5.85;;;3.58;;
30249;SDS011;17064;47.974;13.826;2024-02-04T02:05:29;5.18;;;2.70;;
30249;SDS011;17064;47.974;13.826;2024-02-04T02:10:48;4.45;;;2.85;;
30249;SDS011;17064;47.974;13.826;2024-02-04T02:16:14;4.07;;;2.90;;
30249;SDS011;17064;47.974;13.826;2024-02-04T02:27:11;6.77;;;3.03;;
30249;SDS011;17064;47.974;13.826;2024-02-04T02:32:30;5.68;;;3.15;;
30249;SDS011;17064;47.974;13.826;2024-02-04T02:43:28;11.48;;;3.50;;
30249;SDS011;17064;47.974;13.826;2024-02-04T02:48:48;5.55;;;3.00;;
30249;SDS011;17064;47.974;13.826;2024-02-04T02:54:08;5.55;;;3.45;;
30249;SDS011;17064;47.974;13.826;2024-02-04T02:59:28;4.97;;;3.38;;
30249;SDS011;17064;47.974;13.826;2024-02-04T03:04:47;4.60;;;3.30;;
30249;SDS011;17064;47.974;13.826;2024-02-04T03:10:06;7.95;;;4.00;;
30249;SDS011;17064;47.974;13.826;2024-02-04T03:15:27;5.03;;;3.10;;
30249;SDS011;17064;47.974;13.826;2024-02-04T03:20:46;4.55;;;3.50;;
30249;SDS011;17064;47.974;13.826;2024-02-04T03:26:05;5.68;;;3.03;;
30249;SDS011;17064;47.974;13.826;2024-02-04T03:31:25;5.55;;;2.97;;
30249;SDS011;17064;47.974;13.826;2024-02-04T03:36:44;4.95;;;3.22;;
30249;SDS011;17064;47.974;13.826;2024-02-04T03:42:03;6.47;;;3.00;;
30249;SDS011;17064;47.974;13.826;2024-02-04T03:47:23;7.07;;;2.88;;
30249;SDS011;17064;47.974;13.826;2024-02-04T03:52:42;2.78;;;2.28;;
30249;SDS011;17064;47.974;13.826;2024-02-04T03:58:01;4.53;;;3.13;;
30249;SDS011;17064;47.974;13.826;2024-02-04T04:03:21;3.85;;;2.50;;
30249;SDS011;17064;47.974;13.826;2024-02-04T04:08:41;2.72;;;1.90;;
30249;SDS011;17064;47.974;13.826;2024-02-04T04:14:00;2.88;;;1.92;;
30249;SDS011;17064;47.974;13.826;2024-02-04T04:19:20;4.93;;;2.42;;
30249;SDS011;17064;47.974;13.826;2024-02-04T04:24:39;3.17;;;2.38;;
30249;SDS011;17064;47.974;13.826;2024-02-04T04:29:58;4.00;;;2.58;;
30249;SDS011;17064;47.974;13.826;2024-02-04T04:35:18;4.53;;;2.58;;
30249;SDS011;17064;47.974;13.826;2024-02-04T04:40:37;3.97;;;2.63;;
30249;SDS011;17064;47.974;13.826;2024-02-04T04:45:56;5.40;;;2.65;;
30249;SDS011;17064;47.974;13.826;2024-02-04T04:51:15;4.18;;;2.22;;
30249;SDS011;17064;47.974;13.826;2024-02-04T04:56:38;4.72;;;2.67;;
30249;SDS011;17064;47.974;13.826;2024-02-04T05:01:58;3.88;;;1.98;;
30249;SDS011;17064;47.974;13.826;2024-02-04T05:07:17;3.67;;;2.35;;
30249;SDS011;17064;47.974;13.826;2024-02-04T05:12:37;3.08;;;2.17;;
30249;SDS011;17064;47.974;13.826;2024-02-04T05:17:56;5.40;;;3.08;;
30249;SDS011;17064;47.974;13.826;2024-02-04T05:23:15;3.60;;;2.13;;
30249;SDS011;17064;47.974;13.826;2024-02-04T05:28:34;3.25;;;2.40;;
30249;SDS011;17064;47.974;13.826;2024-02-04T05:33:53;2.80;;;2.10;;
30249;SDS011;17064;47.974;13.826;2024-02-04T05:39:15;3.17;;;2.00;;
30249;SDS011;17064;47.974;13.826;2024-02-04T05:44:35;4.25;;;2.28;;
30249;SDS011;17064;47.974;13.826;2024-02-04T05:49:54;2.25;;;1.70;;
30249;SDS011;17064;47.974;13.826;2024-02-04T05:55:13;2.55;;;1.73;;
30249;SDS011;17064;47.974;13.826;2024-02-04T06:00:32;3.25;;;1.73;;
30249;SDS011;17064;47.974;13.826;2024-02-04T06:05:51;1.40;;;1.30;;
30249;SDS011;17064;47.974;13.826;2024-02-04T06:11:14;1.75;;;1.35;;
30249;SDS011;17064;47.974;13.826;2024-02-04T06:16:34;1.63;;;1.05;;
30249;SDS011;17064;47.974;13.826;2024-02-04T06:21:53;2.22;;;1.50;;
30249;SDS011;17064;47.974;13.826;2024-02-04T06:27:12;3.42;;;1.02;;
30249;SDS011;17064;47.974;13.826;2024-02-04T06:32:32;1.75;;;1.08;;
30249;SDS011;17064;47.974;13.826;2024-02-04T06:37:51;1.30;;;1.00;;
30249;SDS011;17064;47.974;13.826;2024-02-04T06:43:10;1.73;;;1.23;;
30249;SDS011;17064;47.974;13.826;2024-02-04T06:48:29;1.10;;;1.00;;
30249;SDS011;17064;47.974;13.826;2024-02-04T06:53:48;9.88;;;1.38;;
30249;SDS011;17064;47.974;13.826;2024-02-04T06:59:08;2.40;;;1.23;;
30249;SDS011;17064;47.974;13.826;2024-02-04T07:04:27;4.93;;;1.73;;
30249;SDS011;17064;47.974;13.826;2024-02-04T07:09:46;3.08;;;1.63;;
30249;SDS011;17064;47.974;13.826;2024-02-04T07:15:05;2.80;;;1.60;;
30249;SDS011;17064;47.974;13.826;2024-02-04T07:20:24;3.42;;;1.70;;
30249;SDS011;17064;47.974;13.826;2024-02-04T07:25:44;2.45;;;1.60;;
30249;SDS011;17064;47.974;13.826;2024-02-04T07:31:04;2.42;;;1.80;;
30249;SDS011;17064;47.974;13.826;2024-02-04T07:36:23;2.90;;;1.65;;
30249;SDS011;17064;47.974;13.826;2024-02-04T07:41:42;3.60;;;1.80;;
30249;SDS011;17064;47.974;13.826;2024-02-04T07:47:02;3.00;;;1.83;;
30249;SDS011;17064;47.974;13.826;2024-02-04T07:52:21;2.45;;;1.80;;
30249;SDS011;17064;47.974;13.826;2024-02-04T07:57:40;2.63;;;1.42;;
30249;SDS011;17064;47.974;13.826;2024-02-04T08:03:00;3.53;;;1.67;;
30249;SDS011;17064;47.974;13.826;2024-02-04T08:08:19;2.28;;;1.40;;
30249;SDS011;17064;47.974;13.826;2024-02-04T08:13:39;3.83;;;1.25;;
30249;SDS011;17064;47.974;13.826;2024-02-04T08:18:58;4.65;;;1.40;;
30249;SDS011;17064;47.974;13.826;2024-02-04T08:24:17;2.55;;;1.35;;
30249;SDS011;17064;47.974;13.826;2024-02-04T08:29:36;3.15;;;1.70;;
30249;SDS011;17064;47.974;13.826;2024-02-04T08:34:55;2.03;;;1.38;;
30249;SDS011;17064;47.974;13.826;2024-02-04T08:40:15;3.08;;;1.52;;
30249;SDS011;17064;47.974;13.826;2024-02-04T08:45:34;2.13;;;1.33;;
30249;SDS011;17064;47.974;13.826;2024-02-04T08:50:53;1.33;;;1.20;;
30249;SDS011;17064;47.974;13.826;2024-02-04T08:56:13;2.70;;;1.38;;
30249;SDS011;17064;47.974;13.826;2024-02-04T09:01:32;2.95;;;1.25;;
30249;SDS011;17064;47.974;13.826;2024-02-04T09:06:51;2.10;;;1.70;;
30249;SDS011;17064;47.974;13.826;2024-02-04T09:12:10;2.60;;;1.33;;
30249;SDS011;17064;47.974;13.826;2024-02-04T09:17:30;4.03;;;1.70;;
30249;SDS011;17064;47.974;13.826;2024-02-04T09:22:51;5.35;;;2.13;;
30249;SDS011;17064;47.974;13.826;2024-02-04T09:28:11;9.70;;;2.20;;
30249;SDS011;17064;47.974;13.826;2024-02-04T09:33:30;6.70;;;2.00;;
30249;SDS011;17064;47.974;13.826;2024-02-04T09:38:49;5.47;;;2.75;;
30249;SDS011;17064;47.974;13.826;2024-02-04T09:44:08;4.75;;;2.25;;
30249;SDS011;17064;47.974;13.826;2024-02-04T09:49:27;4.47;;;1.98;;
30249;SDS011;17064;47.974;13.826;2024-02-04T09:54:49;6.75;;;1.92;;
30249;SDS011;17064;47.974;13.826;2024-02-04T10:00:13;8.82;;;2.97;;
30249;SDS011;17064;47.974;13.826;2024-02-04T10:05:37;6.25;;;3.20;;
30249;SDS011;17064;47.974;13.826;2024-02-04T10:10:56;6.38;;;3.30;;
30249;SDS011;17064;47.974;13.826;2024-02-04T10:16:16;7.70;;;2.97;;
30249;SDS011;17064;47.974;13.826;2024-02-04T10:21:36;9.50;;;4.43;;
30249;SDS011;17064;47.974;13.826;2024-02-04T10:26:56;9.35;;;2.10;;
30249;SDS011;17064;47.974;13.826;2024-02-04T10:32:20;4.47;;;1.70;;
30249;SDS011;17064;47.974;13.826;2024-02-04T10:37:41;4.85;;;1.90;;
30249;SDS011;17064;47.974;13.826;2024-02-04T10:43:03;2.97;;;1.40;;
30249;SDS011;17064;47.974;13.826;2024-02-04T10:48:24;3.45;;;1.65;;
30249;SDS011;17064;47.974;13.826;2024-02-04T10:53:45;2.63;;;1.23;;
30249;SDS011;17064;47.974;13.826;2024-02-04T10:59:04;3.63;;;1.50;;
30249;SDS011;17064;47.974;13.826;2024-02-04T11:04:26;4.57;;;1.50;;
30249;SDS011;17064;47.974;13.826;2024-02-04T11:09:47;8.10;;;1.30;;
30249;SDS011;17064;47.974;13.826;2024-02-04T11:15:09;8.18;;;1.30;;
30249;SDS011;17064;47.974;13.826;2024-02-04T11:26:15;2.78;;;1.80;;
30249;SDS011;17064;47.974;13.826;2024-02-04T11:31:38;4.63;;;1.60;;
30249;SDS011;17064;47.974;13.826;2024-02-04T11:37:01;5.60;;;1.10;;
30249;SDS011;17064;47.974;13.826;2024-02-04T11:42:22;6.38;;;1.75;;
30249;SDS011;17064;47.974;13.826;2024-02-04T11:47:42;3.95;;;1.45;;
30249;SDS011;17064;47.974;13.826;2024-02-04T11:53:02;4.40;;;1.38;;
30249;SDS011;17064;47.974;13.826;2024-02-04T11:58:29;4.00;;;1.27;;
30249;SDS011;17064;47.974;13.826;2024-02-04T12:03:50;11.93;;;1.45;;
30249;SDS011;17064;47.974;13.826;2024-02-04T12:09:10;4.85;;;1.73;;
30249;SDS011;17064;47.974;13.826;2024-02-04T12:14:31;3.00;;;1.40;;
30249;SDS011;17064;47.974;13.826;2024-02-04T12:19:53;2.67;;;1.30;;
30249;SDS011;17064;47.974;13.826;2024-02-04T12:25:12;4.57;;;1.60;;
30249;SDS011;17064;47.974;13.826;2024-02-04T12:30:32;5.32;;;1.50;;
30249;SDS011;17064;47.974;13.826;2024-02-04T12:35:52;3.22;;;1.42;;
30249;SDS011;17064;47.974;13.826;2024-02-04T12:41:14;5.13;;;1.42;;
30249;SDS011;17064;47.974;13.826;2024-02-04T12:46:34;7.53;;;2.03;;
30249;SDS011;17064;47.974;13.826;2024-02-04T12:52:03;14.90;;;2.33;;
30249;SDS011;17064;47.974;13.826;2024-02-04T12:57:23;9.00;;;2.00;;
30249;SDS011;17064;47.974;13.826;2024-02-04T13:02:42;7.47;;;1.88;;
30249;SDS011;17064;47.974;13.826;2024-02-04T13:08:02;13.02;;;2.35;;
30249;SDS011;17064;47.974;13.826;2024-02-04T13:13:24;7.43;;;1.38;;
30249;SDS011;17064;47.974;13.826;2024-02-04T13:18:53;4.05;;;1.83;;
30249;SDS011;17064;47.974;13.826;2024-02-04T13:24:13;5.95;;;1.52;;
30249;SDS011;17064;47.974;13.826;2024-02-04T13:29:32;13.73;;;3.15;;
30249;SDS011;17064;47.974;13.826;2024-02-04T13:34:51;4.57;;;1.75;;
30249;SDS011;17064;47.974;13.826;2024-02-04T13:40:10;12.93;;;1.60;;
30249;SDS011;17064;47.974;13.826;2024-02-04T13:45:30;9.13;;;1.58;;
30249;SDS011;17064;47.974;13.826;2024-02-04T13:50:50;4.35;;;1.52;;
30249;SDS011;17064;47.974;13.826;2024-02-04T13:56:09;3.25;;;1.55;;
30249;SDS011;17064;47.974;13.826;2024-02-04T14:01:28;4.43;;;1.40;;
30249;SDS011;17064;47.974;13.826;2024-02-04T14:06:48;6.05;;;1.80;;
30249;SDS011;17064;47.974;13.826;2024-02-04T14:12:07;5.47;;;1.35;;
30249;SDS011;17064;47.974;13.826;2024-02-04T14:17:27;3.05;;;1.08;;
30249;SDS011;17064;47.974;13.826;2024-02-04T14:22:46;5.60;;;2.33;;
30249;SDS011;17064;47.974;13.826;2024-02-04T14:28:05;7.50;;;2.05;;
30249;SDS011;17064;47.974;13.826;2024-02-04T14:33:24;2.55;;;1.30;;
30249;SDS011;17064;47.974;13.826;2024-02-04T14:38:44;5.25;;;1.35;;
30249;SDS011;17064;47.974;13.826;2024-02-04T14:44:03;4.32;;;1.30;;
30249;SDS011;17064;47.974;13.826;2024-02-04T14:49:22;6.00;;;1.30;;
30249;SDS011;17064;47.974;13.826;2024-02-04T14:54:42;3.15;;;1.25;;
30249;SDS011;17064;47.974;13.826;2024-02-04T15:00:01;3.95;;;1.80;;
30249;SDS011;17064;47.974;13.826;2024-02-04T15:05:21;11.02;;;1.48;;
30249;SDS011;17064;47.974;13.826;2024-02-04T15:10:40;3.22;;;1.58;;
30249;SDS011;17064;47.974;13.826;2024-02-04T15:16:00;5.00;;;1.27;;
30249;SDS011;17064;47.974;13.826;2024-02-04T15:21:20;5.80;;;1.70;;
30249;SDS011;17064;47.974;13.826;2024-02-04T15:26:39;2.00;;;1.20;;
30249;SDS011;17064;47.974;13.826;2024-02-04T15:32:02;8.65;;;1.58;;
30249;SDS011;17064;47.974;13.826;2024-02-04T15:37:21;6.13;;;1.55;;
30249;SDS011;17064;47.974;13.826;2024-02-04T15:42:41;4.53;;;1.15;;
30249;SDS011;17064;47.974;13.826;2024-02-04T15:48:01;5.75;;;1.42;;
30249;SDS011;17064;47.974;13.826;2024-02-04T15:53:23;6.47;;;1.05;;
30249;SDS011;17064;47.974;13.826;2024-02-04T15:58:43;1.70;;;0.70;;
30249;SDS011;17064;47.974;13.826;2024-02-04T16:04:03;5.90;;;1.10;;
30249;SDS011;17064;47.974;13.826;2024-02-04T16:09:22;2.22;;;0.77;;
30249;SDS011;17064;47.974;13.826;2024-02-04T16:14:42;5.32;;;1.02;;
30249;SDS011;17064;47.974;13.826;2024-02-04T16:20:04;3.25;;;0.88;;
30249;SDS011;17064;47.974;13.826;2024-02-04T16:25:24;2.67;;;0.70;;
30249;SDS011;17064;47.974;13.826;2024-02-04T16:30:48;2.33;;;1.20;;
30249;SDS011;17064;47.974;13.826;2024-02-04T16:36:07;2.97;;;1.00;;
30249;SDS011;17064;47.974;13.826;2024-02-04T16:41:27;2.72;;;0.75;;
30249;SDS011;17064;47.974;13.826;2024-02-04T16:46:46;2.53;;;0.68;;
30249;SDS011;17064;47.974;13.826;2024-02-04T16:52:07;1.95;;;0.93;;
30249;SDS011;17064;47.974;13.826;2024-02-04T16:57:26;1.63;;;0.60;;
30249;SDS011;17064;47.974;13.826;2024-02-04T17:02:45;3.70;;;0.98;;
30249;SDS011;17064;47.974;13.826;2024-02-04T17:08:05;4.15;;;1.00;;
30249;SDS011;17064;47.974;13.826;2024-02-04T17:13:24;4.28;;;1.42;;
30249;SDS011;17064;47.974;13.826;2024-02-04T17:18:48;6.82;;;1.38;;
30249;SDS011;17064;47.974;13.826;2024-02-04T17:24:25;4.20;;;2.25;;
30249;SDS011;17064;47.974;13.826;2024-02-04T17:29:46;2.35;;;1.02;;
30249;SDS011;17064;47.974;13.826;2024-02-04T17:35:09;4.60;;;0.82;;
30249;SDS011;17064;47.974;13.826;2024-02-04T17:40:28;1.45;;;0.63;;
30249;SDS011;17064;47.974;13.826;2024-02-04T17:45:50;1.20;;;0.60;;
30249;SDS011;17064;47.974;13.826;2024-02-04T17:51:09;5.38;;;1.00;;
30249;SDS011;17064;47.974;13.826;2024-02-04T17:56:28;1.10;;;0.75;;
30249;SDS011;17064;47.974;13.826;2024-02-04T18:01:47;3.40;;;0.65;;
30249;SDS011;17064;47.974;13.826;2024-02-04T18:07:08;2.53;;;1.10;;
30249;SDS011;17064;47.974;13.826;2024-02-04T18:12:27;1.98;;;0.73;;
30249;SDS011;17064;47.974;13.826;2024-02-04T18:17:47;2.28;;;0.68;;
30249;SDS011;17064;47.974;13.826;2024-02-04T18:23:08;2.22;;;0.68;;
30249;SDS011;17064;47.974;13.826;2024-02-04T18:28:28;3.03;;;0.88;;
30249;SDS011;17064;47.974;13.826;2024-02-04T18:33:47;2.60;;;0.57;;
30249;SDS011;17064;47.974;13.826;2024-02-04T18:39:08;0.43;;;0.40;;
30249;SDS011;17064;47.974;13.826;2024-02-04T18:44:28;2.28;;;0.70;;
30249;SDS011;17064;47.974;13.826;2024-02-04T18:49:48;1.27;;;0.50;;
30249;SDS011;17064;47.974;13.826;2024-02-04T18:55:07;2.20;;;0.40;;
30249;SDS011;17064;47.974;13.826;2024-02-04T19:00:28;1.42;;;0.60;;
30249;SDS011;17064;47.974;13.826;2024-02-04T19:05:47;3.65;;;0.45;;
30249;SDS011;17064;47.974;13.826;2024-02-04T19:11:08;4.68;;;0.95;;
30249;SDS011;17064;47.974;13.826;2024-02-04T19:16:28;2.50;;;0.45;;
30249;SDS011;17064;47.974;13.826;2024-02-04T19:21:48;2.53;;;0.40;;
30249;SDS011;17064;47.974;13.826;2024-02-04T19:27:07;1.02;;;0.50;;
30249;SDS011;17064;47.974;13.826;2024-02-04T19:32:27;3.88;;;0.50;;
30249;SDS011;17064;47.974;13.826;2024-02-04T19:37:46;5.00;;;0.40;;
30249;SDS011;17064;47.974;13.826;2024-02-04T19:43:06;1.02;;;0.47;;
30249;SDS011;17064;47.974;13.826;2024-02-04T19:48:25;2.08;;;0.52;;
30249;SDS011;17064;47.974;13.826;2024-02-04T19:53:45;0.80;;;0.30;;
30249;SDS011;17064;47.974;13.826;2024-02-04T19:59:04;0.45;;;0.40;;
30249;SDS011;17064;47.974;13.826;2024-02-04T20:04:24;0.68;;;0.20;;
30249;SDS011;17064;47.974;13.826;2024-02-04T20:09:43;0.98;;;0.30;;
30249;SDS011;17064;47.974;13.826;2024-02-04T20:15:04;2.75;;;0.22;;
30249;SDS011;17064;47.974;13.826;2024-02-04T20:20:24;0.70;;;0.20;;
30249;SDS011;17064;47.974;13.826;2024-02-04T20:25:44;1.00;;;0.20;;
30249;SDS011;17064;47.974;13.826;2024-02-04T20:31:04;0.22;;;0.10;;
30249;SDS011;17064;47.974;13.826;2024-02-04T20:36:25;0.40;;;0.30;;
30249;SDS011;17064;47.974;13.826;2024-02-04T20:41:48;3.28;;;0.30;;
30249;SDS011;17064;47.974;13.826;2024-02-04T20:47:08;2.20;;;0.68;;
30249;SDS011;17064;47.974;13.826;2024-02-04T20:52:27;2.20;;;0.50;;
30249;SDS011;17064;47.974;13.826;2024-02-04T20:57:46;0.30;;;0.10;;
30249;SDS011;17064;47.974;13.826;2024-02-04T21:03:06;1.25;;;0.50;;
30249;SDS011;17064;47.974;13.826;2024-02-04T21:08:25;2.60;;;0.32;;
30249;SDS011;17064;47.974;13.826;2024-02-04T21:13:44;2.50;;;0.40;;
30249;SDS011;17064;47.974;13.826;2024-02-04T21:19:04;2.35;;;0.40;;
30249;SDS011;17064;47.974;13.826;2024-02-04T21:24:25;3.10;;;0.60;;
30249;SDS011;17064;47.974;13.826;2024-02-04T21:29:44;2.38;;;0.40;;
30249;SDS011;17064;47.974;13.826;2024-02-04T21:35:03;3.05;;;0.60;;
30249;SDS011;17064;47.974;13.826;2024-02-04T21:40:23;0.73;;;0.28;;
30249;SDS011;17064;47.974;13.826;2024-02-04T21:45:44;1.13;;;0.30;;
30249;SDS011;17064;47.974;13.826;2024-02-04T21:51:03;2.13;;;0.60;;
30249;SDS011;17064;47.974;13.826;2024-02-04T21:56:23;1.98;;;0.28;;
30249;SDS011;17064;47.974;13.826;2024-02-04T22:01:42;1.55;;;0.50;;
30249;SDS011;17064;47.974;13.826;2024-02-04T22:07:01;4.75;;;0.43;;
30249;SDS011;17064;47.974;13.826;2024-02-04T22:12:20;1.42;;;0.38;;
30249;SDS011;17064;47.974;13.826;2024-02-04T22:17:40;0.52;;;0.30;;
30249;SDS011;17064;47.974;13.826;2024-02-04T22:23:01;1.23;;;0.40;;
30249;SDS011;17064;47.974;13.826;2024-02-04T22:28:20;8.07;;;0.50;;
30249;SDS011;17064;47.974;13.826;2024-02-04T22:33:39;0.93;;;0.32;;
30249;SDS011;17064;47.974;13.826;2024-02-04T22:38:59;4.22;;;0.30;;
30249;SDS011;17064;47.974;13.826;2024-02-04T22:44:18;0.43;;;0.30;;
30249;SDS011;17064;47.974;13.826;2024-02-04T22:49:37;1.52;;;0.30;;
30249;SDS011;17064;47.974;13.826;2024-02-04T22:54:56;0.22;;;0.20;;
30249;SDS011;17064;47.974;13.826;2024-02-04T23:00:16;1.33;;;0.40;;
30249;SDS011;17064;47.974;13.826;2024-02-04T23:05:48;0.80;;;0.20;;
30249;SDS011;17064;47.974;13.826;2024-02-04T23:11:07;0.13;;;0.08;;
30249;SDS011;17064;47.974;13.826;2024-02-04T23:16:28;3.33;;;0.40;;
30249;SDS011;17064;47.974;13.826;2024-02-04T23:21:47;1.13;;;0.40;;
30249;SDS011;17064;47.974;13.826;2024-02-04T23:27:06;0.10;;;0.10;;
30249;SDS011;17064;47.974;13.826;2024-02-04T23:32:25;0.13;;;0.10;;
30249;SDS011;17064;47.974;13.826;2024-02-04T23:37:44;1.00;;;0.17;;
30249;SDS011;17064;47.974;13.826;2024-02-04T23:43:03;1.30;;;0.30;;
30249;SDS011;17064;47.974;13.826;2024-02-04T23:48:22;1.77;;;0.30;;
30249;SDS011;17064;47.974;13.826;2024-02-04T23:53:42;0.17;;;0.13;;
30249;SDS011;17064;47.974;13.826;2024-02-04T23:59:01;1.73;;;0.20;;
